Cosco Aden — VRKF9 — position and weather

sailwx.info

Track history (hours):
 
Tides and Currents Weather Stations Pressure Air Temp Water Temp Dewpoint Dewpoint Depression Visibility Wind Speed Wind Dir Waves Ship Positions

Cosco Aden

Last reported at 2015-Aug-02 19:33 UTC. Time now 2015-Aug-02 20:21 UTC.
Position N 31°58' W 080°38'.

Length 261 m; draft 10.1 m.

Type: Other ship. MMSI: 477765900.

Date/timePositionNaut miles runAvg speedWind from/ knotsBaromVisibWave heightAir tempDewpointWater temp
2015-Aug-02 19:33N 31°58' W 080°38'1111.2
2015-Aug-02 18:34N 32°02' W 080°50'1111.1
2015-Aug-02 17:33N 32°05' W 081°03'5 5.3
2015-Aug-02 16:32N 32°08' W 081°08'0 0.0
2015-Aug-02 15:32N 32°08' W 081°08'0 0.0
2015-Aug-02 14:32N 32°08' W 081°08'0 0.0
2015-Aug-02 13:32N 32°08' W 081°08'0 0.0
2015-Aug-02 12:32N 32°08' W 081°08'0 0.0
2015-Aug-02 11:32N 32°08' W 081°08'0 0.0
2015-Aug-02 10:32N 32°08' W 081°08'0 0.0
2015-Aug-02 09:32N 32°08' W 081°08'0 0.0
2015-Aug-02 08:32N 32°08' W 081°08'0 0.0
2015-Aug-02 07:32N 32°08' W 081°08'0 0.0
2015-Aug-02 06:32N 32°08' W 081°08'0 0.0
2015-Aug-02 05:32N 32°08' W 081°08'0 0.0
2015-Aug-02 04:32N 32°08' W 081°08'0 0.0
2015-Aug-02 03:32N 32°08' W 081°08'0 0.0
2015-Aug-02 02:32N 32°08' W 081°08'0 0.0
2015-Aug-02 01:32N 32°08' W 081°08'0 0.0
2015-Aug-02 00:32N 32°08' W 081°08'0 0.0
2015-Aug-01 23:32N 32°08' W 081°08'0 0.0
2015-Aug-01 22:32N 32°08' W 081°08'0 0.0
2015-Aug-01 21:32N 32°08' W 081°08'0 0.0
2015-Aug-01 20:32N 32°08' W 081°08'0 0.0
2015-Aug-01 19:32N 32°08' W 081°08'0 0.0
2015-Aug-01 18:32N 32°08' W 081°08'2 2.2
2015-Aug-01 17:33N 32°06' W 081°07'4 4.1
2015-Aug-01 16:33N 32°05' W 081°02'4 3.5
2015-Aug-01 15:33N 32°04' W 080°58'6 5.5
2015-Aug-01 14:33N 32°02' W 080°52'1110.6
2015-Aug-01 13:33N 31°58' W 080°41'5 5.2
2015-Aug-01 12:33N 31°55' W 080°36'1 0.7
2015-Aug-01 11:34N 31°54' W 080°37'1 0.8
2015-Aug-01 10:33N 31°53' W 080°37'3 2.6
2015-Aug-01 09:33N 31°52' W 080°35'1111.3
2015-Aug-01 08:33N 31°43' W 080°27'  
Track history (hours):
 
Tides and Currents Weather Stations Pressure Air Temp Water Temp Dewpoint Dewpoint Depression Visibility Wind Speed Wind Dir Waves Ship Positions

Cosco Aden

Last reported at 2015-Aug-02 19:33 UTC. Time now 2015-Aug-02 20:21 UTC.
Position N 31°58' W 080°38'.

Length 261 m; draft 10.1 m.

Type: Other ship. MMSI: 477765900.

Date/timePositionNaut miles runAvg speedWind from/ knotsBaromVisibWave heightAir tempDewpointWater temp
2015-Aug-02 19:33N 31°58' W 080°38'1111.2
2015-Aug-02 18:34N 32°02' W 080°50'1111.1
2015-Aug-02 17:33N 32°05' W 081°03'5 5.3
2015-Aug-02 16:32N 32°08' W 081°08'0 0.0
2015-Aug-02 15:32N 32°08' W 081°08'0 0.0
2015-Aug-02 14:32N 32°08' W 081°08'0 0.0
2015-Aug-02 13:32N 32°08' W 081°08'0 0.0
2015-Aug-02 12:32N 32°08' W 081°08'0 0.0
2015-Aug-02 11:32N 32°08' W 081°08'0 0.0
2015-Aug-02 10:32N 32°08' W 081°08'0 0.0
2015-Aug-02 09:32N 32°08' W 081°08'0 0.0
2015-Aug-02 08:32N 32°08' W 081°08'0 0.0
2015-Aug-02 07:32N 32°08' W 081°08'0 0.0
2015-Aug-02 06:32N 32°08' W 081°08'0 0.0
2015-Aug-02 05:32N 32°08' W 081°08'0 0.0
2015-Aug-02 04:32N 32°08' W 081°08'0 0.0
2015-Aug-02 03:32N 32°08' W 081°08'0 0.0
2015-Aug-02 02:32N 32°08' W 081°08'0 0.0
2015-Aug-02 01:32N 32°08' W 081°08'0 0.0
2015-Aug-02 00:32N 32°08' W 081°08'0 0.0
2015-Aug-01 23:32N 32°08' W 081°08'0 0.0
2015-Aug-01 22:32N 32°08' W 081°08'0 0.0
2015-Aug-01 21:32N 32°08' W 081°08'0 0.0
2015-Aug-01 20:32N 32°08' W 081°08'0 0.0
2015-Aug-01 19:32N 32°08' W 081°08'0 0.0
2015-Aug-01 18:32N 32°08' W 081°08'2 2.2
2015-Aug-01 17:33N 32°06' W 081°07'4 4.1
2015-Aug-01 16:33N 32°05' W 081°02'4 3.5
2015-Aug-01 15:33N 32°04' W 080°58'6 5.5
2015-Aug-01 14:33N 32°02' W 080°52'1110.6
2015-Aug-01 13:33N 31°58' W 080°41'5 5.2
2015-Aug-01 12:33N 31°55' W 080°36'1 0.7
2015-Aug-01 11:34N 31°54' W 080°37'1 0.8
2015-Aug-01 10:33N 31°53' W 080°37'3 2.6
2015-Aug-01 09:33N 31°52' W 080°35'1111.3
2015-Aug-01 08:33N 31°43' W 080°27'  

Dump ship's entire track history